Time;durP1;ratioP1;P1;durP2;ratioP2;P2;SDS_P1;SDS_P2;PMS_P1;PMS_P2;Temp;Humidity;BMP_temperature;BMP_pressure;BME280_temperature;BME280_humidity;BME280_pressure;Samples;Min_cycle;Max_cycle;Signal;HPM_P1;HPM_P2
2023/03/20 00:02:48;;;;;;;;;;;10.09;34.86;;;;;;2671359;76;20881;-91
2023/03/20 00:06:19;;;;;;;;;;;10.11;34.79;;;;;;2670638;76;20793;-92
2023/03/20 00:09:48;;;;;;;;;;;10.09;35.04;;;;;;2671069;76;20453;-92
2023/03/20 00:13:16;;;;;;;;;;;10.08;34.96;;;;;;2670552;76;20818;-92
2023/03/20 00:16:44;;;;;;;;;;;10.06;34.87;;;;;;2670739;76;20443;-93
2023/03/20 00:20:12;;;;;;;;;;;9.97;35.31;;;;;;2670825;76;20469;-92
2023/03/20 00:23:41;;;;;;;;;;;9.84;35.74;;;;;;2671031;76;20442;-92
2023/03/20 00:27:09;;;;;;;;;;;9.68;36.08;;;;;;2671061;76;20329;-91
2023/03/20 00:30:40;;;;;;;;;;;9.68;36.07;;;;;;2671253;76;20449;-92
2023/03/20 00:34:08;;;;;;;;;;;9.81;35.75;;;;;;2670532;76;20446;-91
2023/03/20 00:37:36;;;;;;;;;;;9.67;36.94;;;;;;2670482;76;20498;-92
2023/03/20 00:41:04;;;;;;;;;;;9.74;36.35;;;;;;2670233;76;20430;-91
2023/03/20 00:44:32;;;;;;;;;;;9.76;36.26;;;;;;2670162;76;20447;-91
2023/03/20 00:48:00;;;;;;;;;;;9.79;36.18;;;;;;2668864;76;20477;-92
2023/03/20 00:51:28;;;;;;;;;;;9.82;35.87;;;;;;2671449;76;20432;-92
2023/03/20 00:54:56;;;;;;;;;;;9.89;35.77;;;;;;2671193;76;20459;-92
2023/03/20 00:58:25;;;;;;;;;;;9.79;35.92;;;;;;2670521;76;20519;-91
2023/03/20 01:01:53;;;;;;;;;;;9.85;35.72;;;;;;2671144;76;21004;-93
2023/03/20 01:05:24;;;;;;;;;;;9.88;35.56;;;;;;2669796;76;20473;-91
2023/03/20 01:08:52;;;;;;;;;;;9.70;35.94;;;;;;2670905;76;20699;-91
2023/03/20 01:12:20;;;;;;;;;;;9.65;36.29;;;;;;2671402;76;20512;-92
2023/03/20 01:15:48;;;;;;;;;;;9.65;36.73;;;;;;2670077;76;20490;-90
2023/03/20 01:19:16;;;;;;;;;;;9.67;36.18;;;;;;2670859;76;20900;-91
2023/03/20 01:22:44;;;;;;;;;;;9.67;36.53;;;;;;2671057;76;20478;-91
2023/03/20 01:26:12;;;;;;;;;;;9.66;35.98;;;;;;2670762;76;20442;-91
2023/03/20 01:29:41;;;;;;;;;;;9.74;36.05;;;;;;2670852;76;20428;-92
2023/03/20 01:33:09;;;;;;;;;;;9.81;35.61;;;;;;2670561;76;20437;-91
2023/03/20 01:36:37;;;;;;;;;;;9.80;35.44;;;;;;2670959;76;20465;-93
2023/03/20 01:40:05;;;;;;;;;;;9.72;35.21;;;;;;2671060;76;20443;-91
2023/03/20 01:43:33;;;;;;;;;;;9.81;35.24;;;;;;2671168;76;20471;-92
2023/03/20 01:47:04;;;;;;;;;;;9.70;35.11;;;;;;2669883;76;20996;-92
2023/03/20 01:50:32;;;;;;;;;;;9.79;35.15;;;;;;2670944;76;20435;-93
2023/03/20 01:54:00;;;;;;;;;;;9.83;35.05;;;;;;2670073;76;20473;-92
2023/03/20 01:57:28;;;;;;;;;;;9.74;34.89;;;;;;2670246;76;20434;-92
2023/03/20 02:00:56;;;;;;;;;;;9.77;35.05;;;;;;2670573;76;20436;-92
2023/03/20 02:04:24;;;;;;;;;;;9.84;34.82;;;;;;2670742;76;20443;-93
2023/03/20 02:07:52;;;;;;;;;;;9.86;34.74;;;;;;2670168;76;20454;-91
2023/03/20 02:11:21;;;;;;;;;;;9.78;34.75;;;;;;2671164;76;20447;-91
2023/03/20 02:14:49;;;;;;;;;;;9.78;34.79;;;;;;2669542;76;20478;-91
2023/03/20 02:18:17;;;;;;;;;;;9.82;34.88;;;;;;2670081;76;20932;-94
2023/03/20 02:21:47;;;;;;;;;;;9.84;34.81;;;;;;2673204;76;20484;-93
2023/03/20 02:25:16;;;;;;;;;;;9.78;34.74;;;;;;2671861;76;20442;-93
2023/03/20 02:28:44;;;;;;;;;;;9.76;34.92;;;;;;2671071;76;21222;-93
2023/03/20 02:32:14;;;;;;;;;;;9.75;35.07;;;;;;2671424;76;20669;-93
2023/03/20 02:35:50;;;;;;;;;;;9.57;34.94;;;;;;2670346;76;20512;-92
2023/03/20 02:39:15;;;;;;;;;;;9.51;35.63;;;;;;2668949;76;20485;-90
2023/03/20 02:42:43;;;;;;;;;;;9.61;35.47;;;;;;2670301;76;20456;-92
2023/03/20 02:46:11;;;;;;;;;;;9.55;35.71;;;;;;2668913;76;20432;-92
2023/03/20 02:49:39;;;;;;;;;;;9.39;36.64;;;;;;2669742;76;20479;-93
2023/03/20 02:53:13;;;;;;;;;;;9.41;37.62;;;;;;2679984;76;20444;-95
2023/03/20 02:56:48;;;;;;;;;;;9.36;38.33;;;;;;2678375;76;20747;-94
2023/03/20 03:00:27;;;;;;;;;;;9.44;37.96;;;;;;2676683;76;20486;-94
2023/03/20 03:03:55;;;;;;;;;;;9.59;37.49;;;;;;2674662;76;20779;-94
2023/03/20 03:07:26;;;;;;;;;;;9.63;37.08;;;;;;2673528;76;20457;-94
2023/03/20 03:11:05;;;;;;;;;;;9.63;36.94;;;;;;2675690;76;20451;-95
2023/03/20 03:14:33;;;;;;;;;;;9.65;36.63;;;;;;2676577;76;20463;-94
2023/03/20 03:18:08;;;;;;;;;;;9.67;36.56;;;;;;2676173;76;20477;-94
2023/03/20 03:21:35;;;;;;;;;;;9.71;36.50;;;;;;2677772;76;20327;-94
2023/03/20 03:25:06;;;;;;;;;;;9.69;36.29;;;;;;2681649;76;20465;-95
2023/03/20 03:28:37;;;;;;;;;;;9.72;36.19;;;;;;2683277;76;20449;-95
2023/03/20 03:32:06;;;;;;;;;;;9.67;36.14;;;;;;2682242;76;20278;-96
2023/03/20 03:35:34;;;;;;;;;;;9.65;36.14;;;;;;2681817;76;20266;-95
2023/03/20 03:39:05;;;;;;;;;;;9.61;36.37;;;;;;2680015;76;20456;-94
2023/03/20 03:42:40;;;;;;;;;;;9.62;36.46;;;;;;2680402;76;20330;-94
2023/03/20 03:46:11;;;;;;;;;;;9.60;36.49;;;;;;2681091;76;20449;-94
2023/03/20 03:49:39;;;;;;;;;;;9.59;36.77;;;;;;2678264;76;20337;-95
2023/03/20 03:53:10;;;;;;;;;;;9.61;36.88;;;;;;2681862;76;20489;-95
2023/03/20 03:56:38;;;;;;;;;;;9.66;36.71;;;;;;2680840;76;20471;-96
2023/03/20 04:00:21;;;;;;;;;;;9.54;36.48;;;;;;2682392;76;20449;-96
2023/03/20 04:04:14;;;;;;;;;;;9.47;37.29;;;;;;2681362;76;21213;-96
2023/03/20 04:11:21;;;;;;;;;;;9.30;37.78;;;;;;2682428;76;20405;-95
2023/03/20 04:14:49;;;;;;;;;;;9.24;37.79;;;;;;2682535;76;20474;-96
2023/03/20 04:18:27;;;;;;;;;;;9.23;37.74;;;;;;2681630;76;20481;-95
2023/03/20 04:22:00;;;;;;;;;;;9.17;36.92;;;;;;2682185;76;20432;-96
2023/03/20 04:25:31;;;;;;;;;;;9.21;36.87;;;;;;2682926;76;20431;-95
2023/03/20 04:29:00;;;;;;;;;;;9.25;36.25;;;;;;2682819;76;20427;-96
2023/03/20 04:32:33;;;;;;;;;;;9.26;35.81;;;;;;2682188;76;20248;-96
2023/03/20 04:36:05;;;;;;;;;;;9.22;35.84;;;;;;2676945;76;20462;-93
2023/03/20 04:39:43;;;;;;;;;;;9.34;35.66;;;;;;2670767;76;20506;-93
2023/03/20 04:43:06;;;;;;;;;;;9.30;35.30;;;;;;2670993;76;20435;-93
2023/03/20 04:46:34;;;;;;;;;;;9.40;34.95;;;;;;2669810;76;20350;-95
2023/03/20 04:50:05;;;;;;;;;;;9.39;34.77;;;;;;2682892;76;20286;-94
2023/03/20 04:53:33;;;;;;;;;;;9.44;34.66;;;;;;2675153;76;20448;-93
2023/03/20 04:57:01;;;;;;;;;;;9.40;34.57;;;;;;2677097;76;20332;-94
2023/03/20 05:00:32;;;;;;;;;;;9.45;34.54;;;;;;2676190;76;21121;-94
2023/03/20 05:04:01;;;;;;;;;;;9.48;34.50;;;;;;2674430;76;20448;-94
2023/03/20 05:07:33;;;;;;;;;;;9.42;34.29;;;;;;2669395;76;20410;-93
2023/03/20 05:11:01;;;;;;;;;;;9.39;34.18;;;;;;2669714;76;20860;-93
2023/03/20 05:14:30;;;;;;;;;;;9.32;34.31;;;;;;2668900;76;20468;-93
2023/03/20 05:17:58;;;;;;;;;;;9.31;34.24;;;;;;2669698;76;20482;-93
2023/03/20 05:21:31;;;;;;;;;;;9.33;33.77;;;;;;2668989;76;20515;-92
2023/03/20 05:24:59;;;;;;;;;;;9.36;33.96;;;;;;2669635;76;20480;-93
2023/03/20 05:28:28;;;;;;;;;;;9.36;33.76;;;;;;2669952;76;20369;-93
2023/03/20 05:31:56;;;;;;;;;;;9.36;33.89;;;;;;2671308;76;20984;-93
2023/03/20 05:35:24;;;;;;;;;;;9.22;33.56;;;;;;2670737;76;20461;-94
2023/03/20 05:38:52;;;;;;;;;;;9.15;34.56;;;;;;2671043;76;20481;-93
2023/03/20 05:42:20;;;;;;;;;;;9.09;34.93;;;;;;2672085;76;20472;-93
2023/03/20 05:45:48;;;;;;;;;;;9.17;34.39;;;;;;2668791;76;20451;-92
2023/03/20 05:49:17;;;;;;;;;;;9.03;33.89;;;;;;2668824;76;20473;-91
2023/03/20 05:52:45;;;;;;;;;;;9.14;34.21;;;;;;2668579;76;20972;-92
2023/03/20 05:56:13;;;;;;;;;;;9.07;34.24;;;;;;2670053;76;20433;-92
2023/03/20 05:59:41;;;;;;;;;;;9.05;33.93;;;;;;2669199;76;21010;-93
2023/03/20 06:03:10;;;;;;;;;;;9.29;33.52;;;;;;2668587;76;20507;-92
2023/03/20 06:06:40;;;;;;;;;;;9.31;32.57;;;;;;2670551;76;20474;-92
2023/03/20 06:10:08;;;;;;;;;;;9.41;32.24;;;;;;2667640;76;20937;-93
2023/03/20 06:13:36;;;;;;;;;;;9.44;31.59;;;;;;2668261;76;20471;-93
2023/03/20 06:17:04;;;;;;;;;;;9.41;31.55;;;;;;2669141;76;20463;-91
2023/03/20 06:20:35;;;;;;;;;;;9.38;31.62;;;;;;2669659;76;20928;-90
2023/03/20 06:24:04;;;;;;;;;;;9.61;31.54;;;;;;2668297;76;20497;-92
2023/03/20 06:27:32;;;;;;;;;;;9.78;31.32;;;;;;2668458;76;20501;-90
2023/03/20 06:31:00;;;;;;;;;;;9.68;31.03;;;;;;2667442;76;20925;-91
2023/03/20 06:34:29;;;;;;;;;;;9.62;30.90;;;;;;2669115;76;20525;-92
2023/03/20 06:37:57;;;;;;;;;;;9.50;30.90;;;;;;2669045;76;20468;-92
2023/03/20 06:41:25;;;;;;;;;;;9.71;30.93;;;;;;2669701;76;20447;-91
2023/03/20 06:44:56;;;;;;;;;;;9.96;30.35;;;;;;2669244;76;20789;-91
2023/03/20 06:48:24;;;;;;;;;;;10.09;29.65;;;;;;2669744;76;20470;-91
2023/03/20 06:51:53;;;;;;;;;;;10.12;29.08;;;;;;2668166;76;20475;-92
2023/03/20 06:55:21;;;;;;;;;;;10.23;28.65;;;;;;2668607;76;20970;-93
2023/03/20 06:58:49;;;;;;;;;;;10.25;28.11;;;;;;2669568;76;20487;-92
2023/03/20 07:02:18;;;;;;;;;;;10.11;27.18;;;;;;2670547;76;20478;-92
2023/03/20 07:05:46;;;;;;;;;;;10.38;27.51;;;;;;2668414;76;20483;-93
2023/03/20 07:09:16;;;;;;;;;;;10.50;27.26;;;;;;2669374;76;20445;-93
2023/03/20 07:12:49;;;;;;;;;;;10.62;27.16;;;;;;2669128;76;20497;-93
2023/03/20 07:16:17;;;;;;;;;;;10.65;26.72;;;;;;2671234;76;20365;-93
2023/03/20 07:19:51;;;;;;;;;;;10.66;26.49;;;;;;2671114;76;20487;-94
2023/03/20 07:23:15;;;;;;;;;;;10.67;26.23;;;;;;2674377;76;20340;-93
2023/03/20 07:26:44;;;;;;;;;;;10.71;26.57;;;;;;2674064;76;20440;-94
2023/03/20 07:30:12;;;;;;;;;;;11.32;26.27;;;;;;2675748;76;20428;-95
2023/03/20 07:33:46;;;;;;;;;;;11.45;25.17;;;;;;2675670;76;20464;-94
2023/03/20 07:37:14;;;;;;;;;;;11.67;26.09;;;;;;2671738;76;20342;-94
2023/03/20 07:40:42;;;;;;;;;;;11.56;24.35;;;;;;2670588;76;20448;-94
2023/03/20 07:44:13;;;;;;;;;;;11.34;23.74;;;;;;2670542;76;20540;-94
2023/03/20 07:47:40;;;;;;;;;;;11.63;24.69;;;;;;2669867;76;20449;-94
2023/03/20 07:51:09;;;;;;;;;;;11.99;24.97;;;;;;2667803;76;20462;-93
2023/03/20 07:54:37;;;;;;;;;;;12.23;25.17;;;;;;2667968;76;20814;-92
2023/03/20 07:58:07;;;;;;;;;;;12.32;24.94;;;;;;2669330;76;20482;-92
2023/03/20 08:01:35;;;;;;;;;;;12.31;24.37;;;;;;2668709;76;20429;-91
2023/03/20 08:05:03;;;;;;;;;;;12.42;24.33;;;;;;2669182;76;20327;-91
2023/03/20 08:08:31;;;;;;;;;;;12.38;24.73;;;;;;2668414;76;20560;-93
2023/03/20 08:11:59;;;;;;;;;;;12.35;23.25;;;;;;2669489;76;20450;-94
2023/03/20 08:15:27;;;;;;;;;;;12.72;24.80;;;;;;2668738;76;20323;-93
2023/03/20 08:22:30;;;;;;;;;;;13.11;21.61;;;;;;2668528;76;20410;-90
2023/03/20 08:25:58;;;;;;;;;;;13.69;23.15;;;;;;2667494;76;20311;-90
2023/03/20 08:29:26;;;;;;;;;;;13.52;21.73;;;;;;2668169;76;20342;-90
2023/03/20 08:32:54;;;;;;;;;;;13.52;21.19;;;;;;2669614;76;20480;-90
2023/03/20 08:36:22;;;;;;;;;;;13.35;19.67;;;;;;2669571;76;20860;-89
2023/03/20 08:39:56;;;;;;;;;;;13.63;19.83;;;;;;2668129;76;20467;-89
2023/03/20 08:43:20;;;;;;;;;;;14.20;20.09;;;;;;2669946;76;20464;-89
2023/03/20 08:46:49;;;;;;;;;;;14.54;20.73;;;;;;2670033;76;20312;-89
2023/03/20 08:50:17;;;;;;;;;;;14.88;19.96;;;;;;2668613;76;20318;-90
2023/03/20 08:53:45;;;;;;;;;;;14.74;19.38;;;;;;2669565;76;20434;-89
2023/03/20 08:57:13;;;;;;;;;;;14.52;19.70;;;;;;2669550;76;20442;-90
2023/03/20 09:00:41;;;;;;;;;;;13.78;16.51;;;;;;2669788;76;20428;-90
2023/03/20 09:04:09;;;;;;;;;;;14.19;17.87;;;;;;2668220;76;20459;-90
2023/03/20 09:07:38;;;;;;;;;;;14.33;17.17;;;;;;2669235;76;20333;-89
2023/03/20 09:11:07;;;;;;;;;;;14.11;13.92;;;;;;2668768;76;20422;-91
2023/03/20 09:14:35;;;;;;;;;;;14.63;15.20;;;;;;2669900;76;20441;-90
2023/03/20 09:18:04;;;;;;;;;;;14.96;15.94;;;;;;2668709;76;21097;-90
2023/03/20 09:21:32;;;;;;;;;;;14.69;12.83;;;;;;2669237;76;20448;-90
2023/03/20 09:25:00;;;;;;;;;;;14.85;12.48;;;;;;2669608;76;20982;-90
2023/03/20 09:28:28;;;;;;;;;;;14.93;12.60;;;;;;2668275;76;20360;-90
2023/03/20 09:31:56;;;;;;;;;;;15.36;12.92;;;;;;2668253;76;20509;-90
2023/03/20 09:35:25;;;;;;;;;;;15.71;13.79;;;;;;2668371;76;20436;-90
2023/03/20 09:38:53;;;;;;;;;;;16.02;14.52;;;;;;2668945;76;20330;-90
2023/03/20 09:42:21;;;;;;;;;;;15.92;13.91;;;;;;2669392;76;20435;-90
2023/03/20 09:45:50;;;;;;;;;;;14.67;8.91;;;;;;2669733;76;20440;-91
2023/03/20 09:49:18;;;;;;;;;;;15.26;11.64;;;;;;2669399;76;21015;-90
2023/03/20 09:52:46;;;;;;;;;;;15.45;10.05;;;;;;2669507;76;21010;-91
2023/03/20 09:56:14;;;;;;;;;;;15.54;9.02;;;;;;2668957;76;20962;-90
2023/03/20 09:59:42;;;;;;;;;;;16.07;10.63;;;;;;2668694;76;20461;-90
2023/03/20 10:03:11;;;;;;;;;;;16.34;11.65;;;;;;2668333;76;20861;-90
2023/03/20 10:06:39;;;;;;;;;;;16.19;12.30;;;;;;2668628;76;20942;-90
2023/03/20 10:10:07;;;;;;;;;;;16.00;10.56;;;;;;2668314;76;20436;-90
2023/03/20 10:13:35;;;;;;;;;;;15.80;8.60;;;;;;2668506;76;20441;-91
2023/03/20 10:17:08;;;;;;;;;;;15.93;9.01;;;;;;2669480;76;20897;-91
2023/03/20 10:20:38;;;;;;;;;;;16.33;8.61;;;;;;2669023;76;21938;-90
2023/03/20 10:24:03;;;;;;;;;;;16.43;9.25;;;;;;2669473;76;20407;-90
2023/03/20 10:27:32;;;;;;;;;;;15.75;9.27;;;;;;2669148;76;20422;-89
2023/03/20 10:31:03;;;;;;;;;;;15.29;10.23;;;;;;2670048;76;20485;-90
2023/03/20 10:34:31;;;;;;;;;;;14.37;7.31;;;;;;2669116;76;20468;-91
2023/03/20 10:37:59;;;;;;;;;;;14.70;9.59;;;;;;2670019;76;21036;-90
2023/03/20 10:41:28;;;;;;;;;;;15.55;10.26;;;;;;2668805;76;20309;-90
2023/03/20 10:44:56;;;;;;;;;;;15.77;9.94;;;;;;2669005;76;20471;-90
2023/03/20 10:48:25;;;;;;;;;;;15.02;4.93;;;;;;2670087;76;20464;-90
2023/03/20 10:51:54;;;;;;;;;;;15.16;6.79;;;;;;2668409;76;20425;-90
2023/03/20 10:55:22;;;;;;;;;;;15.46;8.30;;;;;;2668992;76;20315;-89
2023/03/20 10:58:50;;;;;;;;;;;15.92;8.01;;;;;;2669622;76;20429;-91
2023/03/20 11:02:18;;;;;;;;;;;16.37;6.60;;;;;;2669925;76;20446;-91
2023/03/20 11:05:46;;;;;;;;;;;16.36;4.79;;;;;;2668373;76;20464;-90
2023/03/20 11:09:16;;;;;;;;;;;15.51;1.29;;;;;;2667310;76;20422;-91
2023/03/20 11:12:44;;;;;;;;;;;15.93;4.41;;;;;;2667487;76;22315;-91
2023/03/20 11:16:12;;;;;;;;;;;16.57;5.50;;;;;;2669000;76;20435;-90
2023/03/20 11:19:40;;;;;;;;;;;17.06;5.14;;;;;;2668788;76;20628;-91
2023/03/20 11:23:08;;;;;;;;;;;16.80;-0.59;;;;;;2666938;76;20927;-90
2023/03/20 11:26:40;;;;;;;;;;;16.65;-1.45;;;;;;2667837;76;20948;-90
2023/03/20 11:30:11;;;;;;;;;;;16.42;-0.73;;;;;;2667949;76;20658;-91
2023/03/20 11:33:39;;;;;;;;;;;16.34;2.39;;;;;;2669428;76;20443;-89
2023/03/20 11:37:07;;;;;;;;;;;15.90;-0.11;;;;;;2669513;76;20450;-91
2023/03/20 11:40:35;;;;;;;;;;;16.57;2.11;;;;;;2669684;76;20430;-91
2023/03/20 11:44:03;;;;;;;;;;;16.77;0.84;;;;;;2669344;76;20440;-90
2023/03/20 11:47:32;;;;;;;;;;;17.18;1.58;;;;;;2665939;76;20438;-89
2023/03/20 11:51:00;;;;;;;;;;;17.17;2.08;;;;;;2669030;76;20451;-91
2023/03/20 11:54:28;;;;;;;;;;;17.20;1.48;;;;;;2669037;76;20413;-92
2023/03/20 11:57:56;;;;;;;;;;;16.89;-1.23;;;;;;2669162;76;20452;-91
2023/03/20 12:01:24;;;;;;;;;;;17.21;0.50;;;;;;2668729;76;20465;-91
2023/03/20 12:04:53;;;;;;;;;;;17.23;0.14;;;;;;2668752;76;22722;-89
2023/03/20 12:08:21;;;;;;;;;;;17.13;-1.38;;;;;;2669629;76;20431;-90
2023/03/20 12:11:49;;;;;;;;;;;16.63;-3.08;;;;;;2669405;76;21101;-90
2023/03/20 12:15:17;;;;;;;;;;;16.14;-3.53;;;;;;2668243;76;20916;-90
2023/03/20 12:18:45;;;;;;;;;;;16.48;0.11;;;;;;2668633;76;20497;-91
2023/03/20 12:22:13;;;;;;;;;;;16.16;-0.26;;;;;;2670177;76;20429;-90
2023/03/20 12:25:41;;;;;;;;;;;15.25;-1.74;;;;;;2668518;76;20432;-88
2023/03/20 12:29:10;;;;;;;;;;;15.42;0.21;;;;;;2667666;76;20435;-89
2023/03/20 12:32:38;;;;;;;;;;;15.19;-1.35;;;;;;2668760;76;20303;-88
2023/03/20 12:36:06;;;;;;;;;;;15.75;-0.49;;;;;;2667989;76;20414;-90
2023/03/20 12:39:35;;;;;;;;;;;16.03;-2.79;;;;;;2667881;76;20931;-89
2023/03/20 12:43:03;;;;;;;;;;;16.35;-3.29;;;;;;2667325;76;20450;-90
2023/03/20 12:46:32;;;;;;;;;;;16.63;-3.69;;;;;;2668123;76;20435;-89
2023/03/20 12:50:00;;;;;;;;;;;16.82;-4.18;;;;;;2667992;76;20460;-90
2023/03/20 12:53:29;;;;;;;;;;;17.34;-2.77;;;;;;2666155;76;20461;-88
2023/03/20 12:56:57;;;;;;;;;;;17.53;-2.68;;;;;;2668429;76;20400;-90
2023/03/20 13:00:25;;;;;;;;;;;16.93;-5.43;;;;;;2669107;76;20442;-90
2023/03/20 13:03:53;;;;;;;;;;;16.65;-5.31;;;;;;2668068;76;20437;-90
2023/03/20 13:07:21;;;;;;;;;;;16.48;-5.76;;;;;;2667354;76;20354;-90
2023/03/20 13:10:49;;;;;;;;;;;17.06;-4.14;;;;;;2667721;76;20455;-88
2023/03/20 13:14:17;;;;;;;;;;;17.00;118.95;;;;;;2669687;76;20474;-90
2023/03/20 13:17:49;;;;;;;;;;;16.94;-4.92;;;;;;2668154;76;20315;-91
2023/03/20 13:21:17;;;;;;;;;;;16.00;117.69;;;;;;2668395;76;20458;-90
2023/03/20 13:24:50;;;;;;;;;;;16.24;117.80;;;;;;2668734;76;20545;-90
2023/03/20 13:28:15;;;;;;;;;;;16.34;117.61;;;;;;2668283;76;20484;-88
2023/03/20 13:31:43;;;;;;;;;;;16.04;117.18;;;;;;2668751;76;21543;-88
2023/03/20 13:35:11;;;;;;;;;;;16.32;117.38;;;;;;2668061;76;20464;-90
2023/03/20 13:38:39;;;;;;;;;;;16.29;116.86;;;;;;2666809;76;20813;-89
2023/03/20 13:42:07;;;;;;;;;;;17.18;118.18;;;;;;2666856;76;20455;-89
2023/03/20 13:45:36;;;;;;;;;;;17.33;117.95;;;;;;2669188;76;20432;-89
2023/03/20 13:49:04;;;;;;;;;;;17.59;118.88;;;;;;2668922;76;20424;-88
2023/03/20 13:52:32;;;;;;;;;;;17.03;115.60;;;;;;2667591;76;20360;-89
2023/03/20 13:56:00;;;;;;;;;;;16.95;116.46;;;;;;2669341;76;20422;-89
2023/03/20 13:59:28;;;;;;;;;;;16.93;117.39;;;;;;2668773;76;20912;-89
2023/03/20 14:02:56;;;;;;;;;;;16.96;118.08;;;;;;2669968;76;20441;-90
2023/03/20 14:06:25;;;;;;;;;;;16.80;117.83;;;;;;2668440;76;20412;-89
2023/03/20 14:09:53;;;;;;;;;;;16.72;117.35;;;;;;2667760;76;21049;-89
2023/03/20 14:13:21;;;;;;;;;;;16.57;115.34;;;;;;2669444;76;20927;-88
2023/03/20 14:16:49;;;;;;;;;;;16.74;116.47;;;;;;2668143;76;20491;-90
2023/03/20 14:20:17;;;;;;;;;;;16.91;118.57;;;;;;2669311;76;20440;-92
2023/03/20 14:23:46;;;;;;;;;;;17.09;118.06;;;;;;2668549;76;20455;-92
2023/03/20 14:27:16;;;;;;;;;;;16.39;116.25;;;;;;2668191;76;20462;-91
2023/03/20 14:30:44;;;;;;;;;;;16.28;117.41;;;;;;2668667;76;20983;-91
2023/03/20 14:34:18;;;;;;;;;;;15.74;117.39;;;;;;2666864;76;21035;-91
2023/03/20 14:37:46;;;;;;;;;;;15.41;117.16;;;;;;2668136;76;20517;-91
2023/03/20 14:41:14;;;;;;;;;;;15.34;116.31;;;;;;2667027;76;20350;-91
2023/03/20 14:44:43;;;;;;;;;;;15.59;116.56;;;;;;2669585;76;20456;-91
2023/03/20 14:48:11;;;;;;;;;;;15.66;115.96;;;;;;2667612;76;20487;-90
2023/03/20 14:51:39;;;;;;;;;;;15.55;116.82;;;;;;2666541;76;20322;-90
2023/03/20 14:55:07;;;;;;;;;;;15.97;117.58;;;;;;2669659;76;20461;-91
2023/03/20 14:58:36;;;;;;;;;;;15.43;116.08;;;;;;2670276;76;20365;-91
2023/03/20 15:02:06;;;;;;;;;;;15.39;116.34;;;;;;2669006;76;20373;-91
2023/03/20 15:05:34;;;;;;;;;;;15.59;116.51;;;;;;2669198;76;20359;-90
2023/03/20 15:09:02;;;;;;;;;;;15.18;117.30;;;;;;2667803;76;20335;-90
2023/03/20 15:12:30;;;;;;;;;;;15.06;117.68;;;;;;2667462;76;20431;-90
2023/03/20 15:15:58;;;;;;;;;;;14.84;117.73;;;;;;2667456;76;20416;-90
2023/03/20 15:19:29;;;;;;;;;;;17.59;116.47;;;;;;2666519;76;20505;-92
2023/03/20 15:23:05;;;;;;;;;;;22.32;107.27;;;;;;2667447;76;20507;-92
2023/03/20 15:26:36;;;;;;;;;;;22.91;99.87;;;;;;2668145;76;20441;-93
2023/03/20 15:30:06;;;;;;;;;;;24.08;97.04;;;;;;2666429;76;20532;-93
2023/03/20 15:33:43;;;;;;;;;;;24.41;95.00;;;;;;2669058;76;20593;-93
2023/03/20 15:37:52;;;;;;;;;;;22.90;96.85;;;;;;2666252;76;20529;-90
2023/03/20 15:41:10;;;;;;;;;;;21.87;99.89;;;;;;2663696;76;20657;-89
2023/03/20 15:44:40;;;;;;;;;;;21.72;98.96;;;;;;2667194;76;20453;-91
2023/03/20 15:48:27;;;;;;;;;;;;;;;;;;;;;
2023/03/20 15:52:17;;;;;;;;;;;24.34;96.76;;;;;;2666681;76;20493;-93
2023/03/20 15:55:49;;;;;;;;;;;;;;;;;;;;;
2023/03/20 15:59:31;;;;;;;;;;;23.51;93.69;;;;;;2665563;76;20468;-93
2023/03/20 16:03:02;;;;;;;;;;;22.46;94.97;;;;;;2665280;76;20488;-90
2023/03/20 16:10:59;;;;;;;;;;;19.17;100.74;;;;;;2665569;76;20541;-94
2023/03/20 16:14:55;;;;;;;;;;;18.42;104.24;;;;;;2665307;76;20470;-90
2023/03/20 16:22:10;;;;;;;;;;;17.51;107.10;;;;;;2665991;76;20450;-91
2023/03/20 16:25:36;;;;;;;;;;;15.81;110.71;;;;;;2666478;76;20445;-92
2023/03/20 16:32:45;;;;;;;;;;;14.49;115.45;;;;;;2664832;76;20969;-91
2023/03/20 16:36:14;;;;;;;;;;;14.20;116.89;;;;;;2665864;76;20462;-93
2023/03/20 16:39:44;;;;;;;;;;;13.79;117.69;;;;;;2665995;76;20499;-93
2023/03/20 16:43:22;;;;;;;;;;;13.70;118.69;;;;;;2668435;76;20929;-94
2023/03/20 16:46:50;;;;;;;;;;;13.18;-5.32;;;;;;2672319;76;20769;-92
2023/03/20 16:50:18;;;;;;;;;;;13.12;-4.37;;;;;;2667004;76;20436;-89
2023/03/20 16:53:47;;;;;;;;;;;12.90;-3.76;;;;;;2666112;76;21159;-90
2023/03/20 16:57:15;;;;;;;;;;;12.67;-3.44;;;;;;2665791;76;21079;-90
2023/03/20 17:00:44;;;;;;;;;;;12.58;-2.80;;;;;;2667738;76;20484;-89
2023/03/20 17:04:17;;;;;;;;;;;12.37;-2.22;;;;;;2664409;76;21447;-88
2023/03/20 17:07:44;;;;;;;;;;;12.32;-1.47;;;;;;2666486;76;20483;-88
2023/03/20 17:11:12;;;;;;;;;;;12.10;-1.19;;;;;;2668174;76;20902;-88
2023/03/20 17:14:40;;;;;;;;;;;11.91;-0.62;;;;;;2669877;76;20489;-89
2023/03/20 17:18:09;;;;;;;;;;;11.70;0.09;;;;;;2668750;76;20919;-88
2023/03/20 17:21:37;;;;;;;;;;;11.55;0.95;;;;;;2669079;76;21010;-88
2023/03/20 17:25:08;;;;;;;;;;;11.45;1.77;;;;;;2668902;76;20503;-88
2023/03/20 17:28:41;;;;;;;;;;;11.26;2.25;;;;;;2669067;76;20359;-88
2023/03/20 17:32:09;;;;;;;;;;;11.08;2.75;;;;;;2669596;76;20814;-89
2023/03/20 17:35:37;;;;;;;;;;;10.94;3.28;;;;;;2668617;76;20465;-88
2023/03/20 17:39:06;;;;;;;;;;;10.75;3.56;;;;;;2669348;76;20510;-89
2023/03/20 17:42:34;;;;;;;;;;;10.57;3.80;;;;;;2669548;76;20446;-88
2023/03/20 17:46:02;;;;;;;;;;;10.38;4.01;;;;;;2667053;76;20502;-88
2023/03/20 17:49:32;;;;;;;;;;;10.21;4.28;;;;;;2669843;76;20498;-89
2023/03/20 17:53:00;;;;;;;;;;;10.08;4.60;;;;;;2669706;76;20355;-88
2023/03/20 17:56:31;;;;;;;;;;;9.94;4.77;;;;;;2669638;76;20454;-88
2023/03/20 18:00:01;;;;;;;;;;;9.81;5.04;;;;;;2667772;76;20863;-88
2023/03/20 18:03:29;;;;;;;;;;;9.68;5.30;;;;;;2668795;76;20473;-87
2023/03/20 18:06:57;;;;;;;;;;;9.62;5.50;;;;;;2668976;76;20471;-89
2023/03/20 18:10:25;;;;;;;;;;;9.53;5.69;;;;;;2668905;76;20479;-88
2023/03/20 18:13:55;;;;;;;;;;;9.41;5.79;;;;;;2669740;76;20452;-87
2023/03/20 18:17:24;;;;;;;;;;;9.37;5.95;;;;;;2669337;76;21798;-89
2023/03/20 18:20:53;;;;;;;;;;;9.35;6.30;;;;;;2669515;76;20344;-87
2023/03/20 18:24:21;;;;;;;;;;;9.32;6.60;;;;;;2669236;76;20479;-87
2023/03/20 18:27:52;;;;;;;;;;;9.31;6.83;;;;;;2669637;76;20330;-88
2023/03/20 18:31:20;;;;;;;;;;;9.30;7.03;;;;;;2668838;76;20373;-88
2023/03/20 18:34:48;;;;;;;;;;;9.26;7.44;;;;;;2669201;76;20363;-88
2023/03/20 18:38:17;;;;;;;;;;;9.25;7.94;;;;;;2669990;76;20447;-88
2023/03/20 18:41:45;;;;;;;;;;;9.25;8.15;;;;;;2665541;76;20381;-89
2023/03/20 18:45:13;;;;;;;;;;;9.27;8.22;;;;;;2667801;76;20493;-88
2023/03/20 18:48:41;;;;;;;;;;;9.23;8.14;;;;;;2666669;76;20456;-88
2023/03/20 18:52:13;;;;;;;;;;;9.14;8.14;;;;;;2663743;76;20453;-88
2023/03/20 18:55:39;;;;;;;;;;;9.09;8.24;;;;;;2666803;76;20422;-89
2023/03/20 18:59:11;;;;;;;;;;;9.02;8.41;;;;;;2663723;76;20475;-90
2023/03/20 19:02:40;;;;;;;;;;;9.01;8.84;;;;;;2665998;76;20971;-89
2023/03/20 19:06:11;;;;;;;;;;;9.04;9.01;;;;;;2666273;76;20508;-89
2023/03/20 19:09:41;;;;;;;;;;;9.09;9.36;;;;;;2666724;76;20520;-89
2023/03/20 19:13:09;;;;;;;;;;;9.15;9.74;;;;;;2665031;76;20481;-90
2023/03/20 19:16:37;;;;;;;;;;;9.24;9.97;;;;;;2666421;76;20960;-89
2023/03/20 19:20:06;;;;;;;;;;;9.29;10.05;;;;;;2666960;76;20492;-89
2023/03/20 19:23:34;;;;;;;;;;;9.29;10.08;;;;;;2665581;76;20467;-89
2023/03/20 19:27:02;;;;;;;;;;;9.26;10.20;;;;;;2666862;76;20908;-89
2023/03/20 19:30:30;;;;;;;;;;;9.20;10.32;;;;;;2666310;76;20478;-88
2023/03/20 19:33:58;;;;;;;;;;;9.15;10.34;;;;;;2666658;76;21060;-88
2023/03/20 19:37:26;;;;;;;;;;;9.08;10.27;;;;;;2667260;76;20463;-88
2023/03/20 19:40:54;;;;;;;;;;;9.01;10.13;;;;;;2665222;76;20437;-89
2023/03/20 19:44:23;;;;;;;;;;;8.87;10.00;;;;;;2666441;76;20452;-89
2023/03/20 19:47:51;;;;;;;;;;;8.77;9.94;;;;;;2665839;76;20544;-88
2023/03/20 19:51:19;;;;;;;;;;;8.68;9.87;;;;;;2665865;76;20374;-89
2023/03/20 19:54:47;;;;;;;;;;;8.59;9.84;;;;;;2666151;76;20462;-89
2023/03/20 19:58:15;;;;;;;;;;;8.47;9.73;;;;;;2666004;76;20616;-89
2023/03/20 20:01:44;;;;;;;;;;;8.36;9.53;;;;;;2667812;76;20483;-90
2023/03/20 20:05:14;;;;;;;;;;;8.23;9.31;;;;;;2667334;76;20469;-89
2023/03/20 20:08:45;;;;;;;;;;;8.14;9.28;;;;;;2666841;76;20484;-89
2023/03/20 20:12:13;;;;;;;;;;;8.04;9.27;;;;;;2667043;76;20504;-89
2023/03/20 20:15:47;;;;;;;;;;;7.96;9.98;;;;;;2666697;76;20957;-88
2023/03/20 20:19:16;;;;;;;;;;;7.92;10.18;;;;;;2666276;76;20499;-90
2023/03/20 20:22:44;;;;;;;;;;;7.87;10.31;;;;;;2667065;76;20444;-89
2023/03/20 20:26:12;;;;;;;;;;;7.83;10.23;;;;;;2666471;76;20492;-90
2023/03/20 20:29:40;;;;;;;;;;;7.77;10.10;;;;;;2665883;76;20471;-90
2023/03/20 20:33:09;;;;;;;;;;;7.72;10.37;;;;;;2666866;76;20428;-89
2023/03/20 20:36:37;;;;;;;;;;;7.65;10.34;;;;;;2664578;76;20500;-89
2023/03/20 20:40:08;;;;;;;;;;;7.59;10.04;;;;;;2666710;76;20439;-89
2023/03/20 20:43:36;;;;;;;;;;;7.52;10.13;;;;;;2666644;76;20420;-89
2023/03/20 20:47:04;;;;;;;;;;;7.47;10.13;;;;;;2666638;76;20464;-89
2023/03/20 20:50:32;;;;;;;;;;;7.43;10.14;;;;;;2667864;76;20442;-89